createdAt,value
2018-03-03T00:00:13.127Z,98750.71
2018-03-03T00:01:15.665Z,98743.98
2018-03-03T00:02:18.207Z,98745.05
2018-03-03T00:03:20.776Z,98733.41
2018-03-03T00:04:23.312Z,98745.32
2018-03-03T00:05:25.848Z,98732.47
2018-03-03T00:06:28.386Z,98731.42
2018-03-03T00:07:30.924Z,98740.60
2018-03-03T00:08:33.463Z,98735.05
2018-03-03T00:09:35.990Z,98737.57
2018-03-03T00:10:38.528Z,98734.11
2018-03-03T00:11:41.088Z,98738.80
2018-03-03T00:12:43.624Z,98741.02
2018-03-03T00:13:46.156Z,98743.58
2018-03-03T00:14:48.692Z,98745.12
2018-03-03T00:15:51.221Z,98743.23
2018-03-03T00:16:53.783Z,98737.47
2018-03-03T00:17:56.336Z,98744.19
2018-03-03T00:18:58.868Z,98739.88
2018-03-03T00:20:01.393Z,98741.80
2018-03-03T00:21:03.914Z,98742.13
2018-03-03T00:22:06.464Z,98739.71
2018-03-03T00:23:08.994Z,98740.98
2018-03-03T00:24:11.509Z,98736.61
2018-03-03T00:25:14.029Z,98735.89
2018-03-03T00:26:16.551Z,98736.20
2018-03-03T00:27:19.098Z,98735.39
2018-03-03T00:28:21.636Z,98736.20
2018-03-03T00:29:24.184Z,98735.98
2018-03-03T00:30:26.723Z,98737.67
2018-03-03T00:31:29.265Z,98732.05
2018-03-03T00:32:31.822Z,98734.25
2018-03-03T00:33:34.337Z,98734.45
2018-03-03T00:34:36.880Z,98731.11
2018-03-03T00:35:39.432Z,98738.84
2018-03-03T00:36:41.971Z,98727.05
2018-03-03T00:37:44.529Z,98729.14
2018-03-03T00:38:47.054Z,98726.37
2018-03-03T00:39:49.580Z,98725.12
2018-03-03T00:40:52.116Z,98726.89
2018-03-03T00:41:54.651Z,98727.06
2018-03-03T00:42:57.231Z,98727.17
2018-03-03T00:43:59.755Z,98722.83
2018-03-03T00:45:02.270Z,98721.03
2018-03-03T00:46:04.816Z,98722.02
2018-03-03T00:47:07.337Z,98725.23
2018-03-03T00:48:09.894Z,98725.39
2018-03-03T00:49:12.414Z,98719.68
2018-03-03T00:50:14.938Z,98724.81
2018-03-03T00:51:17.488Z,98725.38
2018-03-03T00:52:20.010Z,98725.38
2018-03-03T00:53:22.563Z,98729.44
2018-03-03T00:54:25.086Z,98724.90
2018-03-03T00:55:27.622Z,98730.63
2018-03-03T00:56:30.172Z,98725.18
2018-03-03T00:57:32.719Z,98724.80
2018-03-03T00:58:35.262Z,98725.28
2018-03-03T00:59:37.786Z,98715.35
2018-03-03T01:00:40.320Z,98723.45
2018-03-03T01:01:42.851Z,98721.44
2018-03-03T01:02:45.378Z,98714.48
2018-03-03T01:03:47.936Z,98720.19
2018-03-03T01:04:50.489Z,98715.68
2018-03-03T01:05:53.036Z,98715.47
2018-03-03T01:06:55.558Z,98715.23
2018-03-03T01:07:58.081Z,98713.15
2018-03-03T01:09:00.635Z,98713.37
2018-03-03T01:10:03.176Z,98705.61
2018-03-03T01:11:05.713Z,98705.57
2018-03-03T01:12:08.230Z,98709.70
2018-03-03T01:13:10.749Z,98707.21
2018-03-03T01:14:13.312Z,98699.45
2018-03-03T01:15:15.845Z,98705.89
2018-03-03T01:16:18.370Z,98707.65
2018-03-03T01:17:20.916Z,98703.83
2018-03-03T01:18:23.461Z,98698.34
2018-03-03T01:19:26.076Z,98698.10
2018-03-03T01:20:28.610Z,98695.47
2018-03-03T01:21:31.155Z,98697.39
2018-03-03T01:22:33.692Z,98698.09
2018-03-03T01:23:36.218Z,98696.53
2018-03-03T01:24:38.772Z,98692.98
2018-03-03T01:25:41.308Z,98694.08
2018-03-03T01:26:43.830Z,98693.85
2018-03-03T01:27:46.366Z,98692.19
2018-03-03T01:28:48.909Z,98691.66
2018-03-03T01:29:51.497Z,98689.17
2018-03-03T01:30:54.015Z,98685.22
2018-03-03T01:31:56.530Z,98690.81
2018-03-03T01:32:59.067Z,98689.88
2018-03-03T01:34:01.615Z,98689.39
2018-03-03T01:35:04.176Z,98690.86
2018-03-03T01:36:06.698Z,98693.95
2018-03-03T01:37:09.240Z,98697.13
2018-03-03T01:38:11.772Z,98695.51
2018-03-03T01:39:14.306Z,98694.45
2018-03-03T01:40:16.860Z,98692.20
2018-03-03T01:41:19.428Z,98692.19
2018-03-03T01:42:21.987Z,98687.02
2018-03-03T01:43:24.505Z,98682.03
2018-03-03T01:44:27.040Z,98683.37
2018-03-03T01:45:29.599Z,98679.48
2018-03-03T01:46:32.120Z,98676.81
2018-03-03T01:47:34.664Z,98680.63
2018-03-03T01:48:37.199Z,98672.77
2018-03-03T01:49:39.738Z,98671.92
2018-03-03T01:50:42.289Z,98675.37
2018-03-03T01:51:44.831Z,98673.09
2018-03-03T01:52:47.354Z,98670.04
2018-03-03T01:53:49.959Z,98667.45
2018-03-03T01:54:52.479Z,98670.89
2018-03-03T01:55:55.063Z,98666.98
2018-03-03T01:56:57.605Z,98665.45
2018-03-03T01:58:00.140Z,98669.33
2018-03-03T01:59:02.669Z,98667.16
2018-03-03T02:00:05.213Z,98665.35
2018-03-03T02:01:07.768Z,98666.13
2018-03-03T02:02:10.324Z,98667.70
2018-03-03T02:03:12.861Z,98661.72
2018-03-03T02:04:15.682Z,98662.64
2018-03-03T02:05:18.215Z,98663.22
2018-03-03T02:06:20.773Z,98655.73
2018-03-03T02:07:23.312Z,98657.14
2018-03-03T02:08:25.863Z,98653.33
2018-03-03T02:09:28.450Z,98661.77
2018-03-03T02:10:30.966Z,98664.98
2018-03-03T02:11:33.534Z,98664.37
2018-03-03T02:12:36.076Z,98658.87
2018-03-03T02:13:38.615Z,98657.60
2018-03-03T02:14:41.148Z,98657.78
2018-03-03T02:15:43.680Z,98657.67
2018-03-03T02:16:46.289Z,98662.47
2018-03-03T02:17:48.802Z,98659.04
2018-03-03T02:18:51.354Z,98662.92
2018-03-03T02:19:53.878Z,98651.55
2018-03-03T02:20:56.412Z,98656.41
2018-03-03T02:21:58.963Z,98659.77
2018-03-03T02:23:01.500Z,98651.77
2018-03-03T02:24:04.061Z,98655.72
2018-03-03T02:25:06.618Z,98664.66
2018-03-03T02:26:09.152Z,98651.36
2018-03-03T02:27:11.710Z,98659.64
2018-03-03T02:28:14.233Z,98658.63
2018-03-03T02:29:16.798Z,98658.44
2018-03-03T02:30:19.323Z,98658.53
2018-03-03T02:31:21.869Z,98655.83
2018-03-03T02:32:24.425Z,98648.71
2018-03-03T02:33:26.955Z,98646.21
2018-03-03T02:34:29.478Z,98652.24
2018-03-03T02:35:32.012Z,98640.42
2018-03-03T02:36:34.539Z,98644.72
2018-03-03T02:37:37.059Z,98647.27
2018-03-03T02:38:39.617Z,98640.00
2018-03-03T02:39:42.158Z,98642.78
2018-03-03T02:40:44.679Z,98631.59
2018-03-03T02:41:47.235Z,98640.46
2018-03-03T02:42:49.758Z,98634.68
2018-03-03T02:43:52.281Z,98632.02
2018-03-03T02:44:54.828Z,98636.83
2018-03-03T02:45:57.358Z,98632.52
2018-03-03T02:46:59.890Z,98637.52
2018-03-03T02:48:02.432Z,98630.02
2018-03-03T02:49:04.954Z,98631.48
2018-03-03T02:50:07.474Z,98628.78
2018-03-03T02:51:10.019Z,98627.63
2018-03-03T02:52:12.597Z,98631.92
2018-03-03T02:53:15.148Z,98630.75
2018-03-03T02:54:17.684Z,98629.09
2018-03-03T02:55:20.219Z,98625.43
2018-03-03T02:56:22.849Z,98623.15
2018-03-03T02:57:25.388Z,98623.22
2018-03-03T02:59:29.729Z,98629.88
2018-03-03T03:00:32.280Z,98619.88
2018-03-03T03:01:34.816Z,98607.88
2018-03-03T03:02:37.361Z,98616.52
2018-03-03T03:03:39.900Z,98613.16
2018-03-03T03:04:42.422Z,98615.04
2018-03-03T03:05:44.946Z,98610.20
2018-03-03T03:06:47.487Z,98609.16
2018-03-03T03:07:50.087Z,98605.56
2018-03-03T03:08:52.620Z,98610.47
2018-03-03T03:09:55.190Z,98605.83
2018-03-03T03:10:57.720Z,98605.33
2018-03-03T03:12:00.242Z,98599.70
2018-03-03T03:13:02.796Z,98596.77
2018-03-03T03:14:05.343Z,98594.02
2018-03-03T03:15:07.883Z,98593.13
2018-03-03T03:16:10.420Z,98594.30
2018-03-03T03:17:12.948Z,98593.20
2018-03-03T03:18:15.507Z,98588.41
2018-03-03T03:19:18.036Z,98590.44
2018-03-03T03:20:20.566Z,98591.55
2018-03-03T03:21:23.114Z,98586.04
2018-03-03T03:22:25.647Z,98578.83
2018-03-03T03:23:28.204Z,98569.14
2018-03-03T03:24:30.748Z,98569.08
2018-03-03T03:25:33.291Z,98567.83
2018-03-03T03:26:35.834Z,98567.92
2018-03-03T03:27:38.358Z,98565.14
2018-03-03T03:28:40.890Z,98564.87
2018-03-03T03:29:43.426Z,98565.30
2018-03-03T03:30:45.951Z,98566.91
2018-03-03T03:31:48.492Z,98566.45
2018-03-03T03:32:51.032Z,98563.59
2018-03-03T03:33:53.595Z,98560.41
2018-03-03T03:34:56.129Z,98566.78
2018-03-03T03:35:58.678Z,98567.98
2018-03-03T03:37:01.215Z,98562.19
2018-03-03T03:38:03.751Z,98567.96
2018-03-03T03:39:06.321Z,98572.78
2018-03-03T03:40:08.852Z,98568.87
2018-03-03T03:41:11.384Z,98576.52
2018-03-03T03:42:13.910Z,98568.22
2018-03-03T03:43:16.434Z,98560.47
2018-03-03T03:44:18.995Z,98566.28
2018-03-03T03:45:21.530Z,98564.52
2018-03-03T03:46:24.054Z,98562.31
2018-03-03T03:47:26.573Z,98567.99
2018-03-03T03:48:29.112Z,98559.78
2018-03-03T03:49:31.651Z,98558.50
2018-03-03T03:50:34.188Z,98559.00
2018-03-03T03:51:36.714Z,98564.48
2018-03-03T03:52:39.252Z,98556.05
2018-03-03T03:53:41.770Z,98562.12
2018-03-03T03:54:44.315Z,98562.34
2018-03-03T03:55:46.847Z,98560.94
2018-03-03T03:56:49.388Z,98566.02
2018-03-03T03:57:51.932Z,98567.41
2018-03-03T03:58:54.463Z,98566.78
2018-03-03T03:59:56.988Z,98566.35
2018-03-03T04:00:59.565Z,98571.17
2018-03-03T04:02:02.103Z,98563.98
2018-03-03T04:03:04.632Z,98562.22
2018-03-03T04:04:07.205Z,98560.11
2018-03-03T04:05:09.730Z,98558.11
2018-03-03T04:06:12.254Z,98554.64
2018-03-03T04:07:14.778Z,98551.70
2018-03-03T04:08:17.330Z,98545.50
2018-03-03T04:09:19.884Z,98551.78
2018-03-03T04:10:22.406Z,98555.00
2018-03-03T04:11:24.930Z,98556.73
2018-03-03T04:12:27.454Z,98552.11
2018-03-03T04:13:30.028Z,98549.02
2018-03-03T04:14:32.595Z,98553.18
2018-03-03T04:15:35.114Z,98547.77
2018-03-03T04:16:37.656Z,98550.73
2018-03-03T04:17:40.199Z,98551.41
2018-03-03T04:18:42.724Z,98544.28
2018-03-03T04:19:45.276Z,98542.91
2018-03-03T04:20:47.829Z,98545.51
2018-03-03T04:21:50.350Z,98547.24
2018-03-03T04:22:52.900Z,98544.58
2018-03-03T04:23:55.444Z,98543.58
2018-03-03T04:24:58.000Z,98543.75
2018-03-03T04:26:00.547Z,98546.14
2018-03-03T04:27:03.112Z,98547.98
2018-03-03T04:28:05.636Z,98545.64
2018-03-03T04:29:08.156Z,98545.50
2018-03-03T04:30:10.694Z,98548.00
2018-03-03T04:31:13.222Z,98541.38
2018-03-03T04:32:15.762Z,98545.84
2018-03-03T04:33:18.285Z,98538.61
2018-03-03T04:34:20.831Z,98539.50
2018-03-03T04:35:23.400Z,98533.03
2018-03-03T04:36:25.931Z,98534.50
2018-03-03T04:37:28.465Z,98536.43
2018-03-03T04:38:31.004Z,98536.25
2018-03-03T04:39:33.527Z,98534.23
2018-03-03T04:40:36.083Z,98533.56
2018-03-03T04:41:38.623Z,98535.02
2018-03-03T04:42:41.160Z,98529.70
2018-03-03T04:43:43.700Z,98528.98
2018-03-03T04:44:46.218Z,98526.64
2018-03-03T04:45:48.990Z,98543.25
2018-03-03T04:46:51.528Z,98526.17
2018-03-03T04:47:54.046Z,98527.03
2018-03-03T04:48:56.570Z,98530.77
2018-03-03T04:49:59.111Z,98533.50
2018-03-03T04:51:01.673Z,98532.16
2018-03-03T04:52:04.207Z,98532.02
2018-03-03T04:53:06.731Z,98526.16
2018-03-03T04:54:09.254Z,98532.78
2018-03-03T04:55:11.816Z,98528.27
2018-03-03T04:56:14.372Z,98533.25
2018-03-03T04:57:16.909Z,98535.72
2018-03-03T04:58:21.424Z,98532.78
2018-03-03T07:19:41.654Z,98551.98
2018-03-03T07:20:44.177Z,98550.06
2018-03-03T07:21:46.719Z,98556.09
2018-03-03T07:22:49.304Z,98554.42
2018-03-03T07:23:51.848Z,98547.82
2018-03-03T07:24:54.384Z,98549.13
2018-03-03T07:25:56.924Z,98553.22
2018-03-03T07:26:59.461Z,98548.66
2018-03-03T07:28:02.003Z,98554.57
2018-03-03T07:29:04.524Z,98549.12
2018-03-03T07:30:07.074Z,98549.42
2018-03-03T07:31:09.644Z,98545.41
2018-03-03T07:32:12.220Z,98552.75
2018-03-03T07:33:14.780Z,98550.95
2018-03-03T07:34:17.320Z,98550.77
2018-03-03T07:35:19.869Z,98549.55
2018-03-03T07:36:22.406Z,98552.22
2018-03-03T07:37:24.948Z,98545.13
2018-03-03T07:38:27.498Z,98554.52
2018-03-03T07:39:30.048Z,98548.38
2018-03-03T07:40:35.708Z,98555.57
2018-03-03T07:41:38.246Z,98551.10
2018-03-03T07:42:40.819Z,98550.15
2018-03-03T07:43:43.356Z,98556.55
2018-03-03T07:44:45.901Z,98561.00
2018-03-03T07:45:48.431Z,98563.41
2018-03-03T07:46:50.988Z,98556.80
2018-03-03T07:47:53.532Z,98560.02
2018-03-03T07:48:56.093Z,98555.28
2018-03-03T07:49:58.610Z,98554.84
2018-03-03T07:51:01.152Z,98559.20
2018-03-03T07:52:03.683Z,98548.74
2018-03-03T07:53:06.242Z,98549.97
2018-03-03T07:54:08.767Z,98548.45
2018-03-03T07:55:11.298Z,98547.31
2018-03-03T07:56:13.856Z,98554.39
2018-03-03T07:57:16.378Z,98548.69
2018-03-03T07:58:30.623Z,98556.08
2018-03-03T07:59:33.174Z,98560.84
2018-03-03T08:00:35.748Z,98552.02
2018-03-03T08:01:38.269Z,98559.67
2018-03-03T08:02:41.214Z,98558.51
2018-03-03T08:03:44.215Z,98556.73
2018-03-03T08:04:47.318Z,98550.88
2018-03-03T08:05:50.387Z,98556.70
2018-03-03T08:06:53.253Z,98552.84
2018-03-03T08:07:56.263Z,98550.43
2018-03-03T08:08:58.862Z,98550.19
2018-03-03T08:10:01.648Z,98555.11
2018-03-03T08:11:04.414Z,98557.28
2018-03-03T08:12:06.970Z,98556.62
2018-03-03T08:13:10.249Z,98558.75
2018-03-03T08:14:13.921Z,98559.44
2018-03-03T08:15:16.653Z,98558.30
2018-03-03T08:16:19.742Z,98552.04
2018-03-03T08:17:22.723Z,98558.87
2018-03-03T08:18:25.739Z,98554.38
2018-03-03T08:19:28.682Z,98556.77
2018-03-03T08:20:31.444Z,98562.08
2018-03-03T08:21:34.313Z,98556.56
2018-03-03T08:22:37.181Z,98562.34
2018-03-03T08:23:40.104Z,98562.08
2018-03-03T08:24:42.900Z,98551.70
2018-03-03T08:25:45.896Z,98557.55
2018-03-03T08:26:49.273Z,98556.59
2018-03-03T08:27:52.949Z,98558.10
2018-03-03T08:28:58.054Z,98555.53
2018-03-03T08:30:00.936Z,98554.96
2018-03-03T08:31:03.802Z,98559.04
2018-03-03T08:32:06.770Z,98561.94
2018-03-03T08:33:09.641Z,98554.17
2018-03-03T08:34:12.500Z,98555.66
2018-03-03T08:35:15.166Z,98552.27
2018-03-03T08:36:17.854Z,98556.25
2018-03-03T08:37:20.808Z,98557.89
2018-03-03T08:38:23.773Z,98560.96
2018-03-03T08:39:26.606Z,98559.79
2018-03-03T08:40:29.297Z,98554.26
2018-03-03T08:41:31.827Z,98551.11
2018-03-03T08:42:34.355Z,98556.47
2018-03-03T08:43:36.871Z,98547.23
2018-03-03T08:44:39.403Z,98549.19
2018-03-03T08:45:41.950Z,98550.92
2018-03-03T08:46:44.472Z,98549.64
2018-03-03T08:47:46.991Z,98552.03
2018-03-03T08:48:49.523Z,98551.63
2018-03-03T08:49:52.047Z,98545.73
2018-03-03T08:50:54.583Z,98551.66
2018-03-03T08:51:57.098Z,98541.65
2018-03-03T08:52:59.623Z,98549.34
2018-03-03T08:54:02.171Z,98550.84
2018-03-03T08:55:04.712Z,98550.38
2018-03-03T08:56:07.250Z,98549.64
2018-03-03T08:57:09.778Z,98551.02
2018-03-03T08:58:12.308Z,98544.45
2018-03-03T08:59:14.826Z,98549.59
2018-03-03T09:00:17.353Z,98544.39
2018-03-03T09:01:19.882Z,98548.03
2018-03-03T09:02:22.400Z,98549.78
2018-03-03T09:03:25.022Z,98543.70
2018-03-03T09:04:27.647Z,98548.03
2018-03-03T09:05:30.222Z,98551.45
2018-03-03T09:06:32.886Z,98543.20
2018-03-03T09:07:35.410Z,98548.55
2018-03-03T09:08:37.943Z,98540.25
2018-03-03T09:09:40.458Z,98548.66
2018-03-03T09:10:43.004Z,98549.70
2018-03-03T09:11:45.545Z,98545.14
2018-03-03T09:12:48.066Z,98545.48
2018-03-03T09:13:50.590Z,98547.03
2018-03-03T09:14:53.118Z,98541.08
2018-03-03T09:15:55.666Z,98546.55
2018-03-03T09:16:58.242Z,98548.67
2018-03-03T09:18:00.757Z,98547.02
2018-03-03T09:19:03.302Z,98556.60
2018-03-03T09:20:05.853Z,98563.45
2018-03-03T09:21:08.372Z,98562.09
2018-03-03T09:22:10.932Z,98561.20
2018-03-03T09:23:13.454Z,98563.23
2018-03-03T09:24:16.052Z,98566.54
2018-03-03T09:25:19.329Z,98558.40
2018-03-03T09:26:21.881Z,98560.28
2018-03-03T09:27:24.437Z,98561.49
2018-03-03T09:28:27.063Z,98567.94
2018-03-03T09:29:29.608Z,98563.92
2018-03-03T09:30:32.342Z,98559.53
2018-03-03T09:31:34.923Z,98558.27
2018-03-03T09:32:37.595Z,98555.77
2018-03-03T09:33:40.177Z,98562.52
2018-03-03T09:34:42.815Z,98560.45
2018-03-03T09:35:45.357Z,98548.39
2018-03-03T09:36:47.910Z,98563.02
2018-03-03T09:37:50.448Z,98559.86
2018-03-03T09:38:52.994Z,98558.64
2018-03-03T09:39:55.633Z,98565.25
2018-03-03T09:40:58.193Z,98565.45
2018-03-03T09:42:00.732Z,98571.81
2018-03-03T09:43:03.387Z,98566.63
2018-03-03T09:44:05.930Z,98570.39
2018-03-03T09:45:08.476Z,98565.88
2018-03-03T09:46:11.016Z,98562.94
2018-03-03T09:47:13.544Z,98563.64
2018-03-03T09:48:17.433Z,98564.27
2018-03-03T09:49:19.967Z,98556.66
2018-03-03T09:50:22.500Z,98553.70
2018-03-03T09:51:25.123Z,98564.34
2018-03-03T09:52:27.904Z,98558.04
2018-03-03T09:53:30.453Z,98567.48
2018-03-03T09:54:32.988Z,98554.05
2018-03-03T09:55:35.527Z,98557.31
2018-03-03T09:56:38.065Z,98558.67
2018-03-03T09:57:40.605Z,98556.74
2018-03-03T09:58:43.338Z,98566.98
2018-03-03T09:59:45.894Z,98571.82
2018-03-03T10:00:48.423Z,98563.73
2018-03-03T10:01:52.334Z,98575.94
2018-03-03T10:02:53.705Z,98569.08
2018-03-03T10:03:56.359Z,98571.69
2018-03-03T10:04:58.976Z,98574.89
2018-03-03T10:06:01.492Z,98563.95
2018-03-03T10:07:04.031Z,98575.14
2018-03-03T10:08:06.573Z,98580.16
2018-03-03T10:09:09.102Z,98573.76
2018-03-03T10:10:11.622Z,98580.77
2018-03-03T10:11:14.180Z,98579.33
2018-03-03T10:12:16.712Z,98580.34
2018-03-03T10:13:19.240Z,98578.53
2018-03-03T10:14:21.773Z,98573.73
2018-03-03T10:15:24.305Z,98578.53
2018-03-03T10:16:26.878Z,98572.11
2018-03-03T10:17:29.390Z,98575.84
2018-03-03T10:18:31.920Z,98571.53
2018-03-03T10:19:34.448Z,98570.80
2018-03-03T10:20:36.965Z,98561.02
2018-03-03T10:21:39.543Z,98563.30
2018-03-03T10:22:42.098Z,98563.17
2018-03-03T10:23:44.644Z,98569.66
2018-03-03T10:24:47.208Z,98561.91
2018-03-03T10:25:49.729Z,98557.99
2018-03-03T10:26:52.272Z,98557.91
2018-03-03T10:27:54.820Z,98566.63
2018-03-03T10:28:57.392Z,98578.78
2018-03-03T10:29:59.972Z,98568.41
2018-03-03T10:31:02.614Z,98564.10
2018-03-03T10:32:05.256Z,98554.94
2018-03-03T10:33:07.808Z,98558.66
2018-03-03T10:34:10.402Z,98552.81
2018-03-03T10:35:14.392Z,98547.94
2018-03-03T10:36:36.402Z,98545.02
2018-03-03T10:37:44.569Z,98550.42
2018-03-03T10:38:47.100Z,98547.29
2018-03-03T10:39:49.701Z,98547.88
2018-03-03T10:40:52.199Z,98547.63
2018-03-03T10:41:54.728Z,98548.62
2018-03-03T10:42:57.241Z,98540.73
2018-03-03T10:44:00.110Z,98538.05
2018-03-03T10:45:02.642Z,98541.95
2018-03-03T10:46:05.188Z,98543.64
2018-03-03T10:47:07.777Z,98545.17
2018-03-03T10:48:10.289Z,98543.17
2018-03-03T10:49:12.809Z,98546.34
2018-03-03T10:50:15.328Z,98540.01
2018-03-03T10:51:17.880Z,98543.77
2018-03-03T10:52:20.403Z,98548.13
2018-03-03T10:53:22.943Z,98542.66
2018-03-03T10:54:25.539Z,98544.23
2018-03-03T10:55:28.042Z,98547.39
2018-03-03T10:56:30.545Z,98546.33
2018-03-03T10:57:33.076Z,98545.94
2018-03-03T10:58:36.072Z,98537.88
2018-03-03T10:59:38.612Z,98541.55
2018-03-03T11:00:41.159Z,98547.19
2018-03-03T11:01:43.674Z,98541.38
2018-03-03T11:02:46.208Z,98544.89
2018-03-03T11:03:49.008Z,98552.25
2018-03-03T11:04:51.526Z,98551.25
2018-03-03T11:05:54.047Z,98551.31
2018-03-03T11:06:56.579Z,98564.73
2018-03-03T11:07:59.106Z,98549.74
2018-03-03T11:09:01.633Z,98557.98
2018-03-03T11:10:04.146Z,98563.72
2018-03-03T11:11:06.684Z,98559.81
2018-03-03T11:12:09.217Z,98558.59
2018-03-03T11:13:11.770Z,98557.55
2018-03-03T11:14:14.278Z,98560.55
2018-03-03T11:15:16.817Z,98557.01
2018-03-03T11:16:19.337Z,98555.38
2018-03-03T11:17:21.873Z,98557.00
2018-03-03T11:18:24.442Z,98557.31
2018-03-03T11:19:26.988Z,98551.61
2018-03-03T11:20:29.522Z,98549.95
2018-03-03T11:21:32.174Z,98549.59
2018-03-03T11:22:34.716Z,98546.81
2018-03-03T11:23:37.362Z,98543.84
2018-03-03T11:24:39.886Z,98551.39
2018-03-03T11:25:43.701Z,98542.36
2018-03-03T11:26:46.369Z,98542.73
2018-03-03T11:27:48.895Z,98535.53
2018-03-03T11:28:51.436Z,98537.01
2018-03-03T11:29:53.971Z,98539.47
2018-03-03T11:30:56.495Z,98534.66
2018-03-03T11:32:00.981Z,98537.23
2018-03-03T11:33:03.516Z,98535.83
2018-03-03T11:34:06.057Z,98541.20
2018-03-03T11:35:08.867Z,98539.87
2018-03-03T11:36:11.414Z,98537.67
2018-03-03T11:37:14.105Z,98539.77
2018-03-03T11:38:16.646Z,98534.25
2018-03-03T11:39:19.213Z,98538.45
2018-03-03T11:40:22.153Z,98541.90
2018-03-03T11:41:25.012Z,98539.16
2018-03-03T11:42:27.568Z,98534.58
2018-03-03T11:43:30.102Z,98529.90
2018-03-03T11:44:32.838Z,98546.58
2018-03-03T11:45:35.409Z,98537.36
2018-03-03T11:46:45.815Z,98542.39
2018-03-03T11:47:48.777Z,98541.74
2018-03-03T11:48:51.787Z,98543.89
2018-03-03T11:49:56.662Z,98543.41
2018-03-03T11:50:59.720Z,98545.35
2018-03-03T11:52:02.272Z,98548.38
2018-03-03T11:53:04.809Z,98542.97
2018-03-03T11:54:07.453Z,98548.72
2018-03-03T11:55:09.977Z,98540.02
2018-03-03T11:56:12.576Z,98548.92
2018-03-03T11:57:15.125Z,98543.95
2018-03-03T11:58:17.680Z,98547.69
2018-03-03T11:59:20.232Z,98545.28
2018-03-03T12:00:22.814Z,98542.27
2018-03-03T12:01:43.212Z,98538.67
2018-03-03T12:02:49.456Z,98542.81
2018-03-03T12:03:52.020Z,98542.58
2018-03-03T12:04:54.552Z,98538.56
2018-03-03T12:05:57.069Z,98543.42
2018-03-03T12:06:59.591Z,98542.59
2018-03-03T12:08:02.142Z,98549.20
2018-03-03T12:09:05.016Z,98543.65
2018-03-03T12:10:07.554Z,98539.77
2018-03-03T12:11:10.333Z,98548.31
2018-03-03T12:12:12.891Z,98547.94
2018-03-03T12:13:15.442Z,98551.39
2018-03-03T12:14:18.430Z,98552.42
2018-03-03T12:15:21.081Z,98552.89
2018-03-03T12:16:23.725Z,98548.31
2018-03-03T12:17:26.252Z,98546.98
2018-03-03T12:18:28.789Z,98549.41
2018-03-03T12:19:31.321Z,98557.87
2018-03-03T12:20:33.859Z,98549.95
2018-03-03T12:21:36.388Z,98557.23
2018-03-03T12:22:39.008Z,98544.87
2018-03-03T12:23:41.540Z,98547.91
2018-03-03T12:24:44.151Z,98544.92
2018-03-03T12:25:46.731Z,98541.75
2018-03-03T12:26:51.697Z,98546.25
2018-03-03T12:28:01.792Z,98539.92
2018-03-03T12:29:04.370Z,98543.36
2018-03-03T12:30:07.041Z,98540.30
2018-03-03T12:32:30.434Z,98540.13
2018-03-03T12:33:37.759Z,98543.85
2018-03-03T12:34:40.583Z,98537.16
2018-03-03T12:35:43.202Z,98545.50
2018-03-03T12:36:45.767Z,98543.28
2018-03-03T12:37:48.315Z,98541.18
2018-03-03T12:38:51.096Z,98546.55
2018-03-03T12:39:53.691Z,98550.78
2018-03-03T12:40:56.238Z,98555.47
2018-03-03T12:41:58.762Z,98551.30
2018-03-03T12:43:01.301Z,98550.59
2018-03-03T12:44:03.822Z,98551.38
2018-03-03T12:45:06.361Z,98552.39
2018-03-03T12:46:08.939Z,98555.58
2018-03-03T12:47:11.495Z,98559.28
2018-03-03T12:48:14.038Z,98553.29
2018-03-03T12:49:17.414Z,98554.97
2018-03-03T12:50:19.961Z,98558.81
2018-03-03T12:51:33.512Z,98557.41
2018-03-03T12:52:36.506Z,98568.55
2018-03-03T12:53:39.027Z,98564.45
2018-03-03T12:54:41.573Z,98567.00
2018-03-03T12:55:44.193Z,98565.97
2018-03-03T12:56:46.826Z,98563.17
2018-03-03T12:57:49.366Z,98564.45
2018-03-03T12:58:53.947Z,98567.48
2018-03-03T12:59:56.500Z,98563.66
2018-03-03T13:00:59.080Z,98565.97
2018-03-03T13:02:01.598Z,98565.65
2018-03-03T13:03:04.150Z,98563.09
2018-03-03T13:04:06.707Z,98558.27
2018-03-03T13:05:09.332Z,98563.44
2018-03-03T13:06:11.902Z,98556.28
2018-03-03T13:07:14.414Z,98553.66
2018-03-03T13:08:17.416Z,98553.03
2018-03-03T13:09:19.953Z,98562.15
2018-03-03T13:10:23.256Z,98559.03
2018-03-03T13:11:25.844Z,98554.56
2018-03-03T13:12:28.362Z,98556.31
2018-03-03T13:13:30.897Z,98553.03
2018-03-03T13:14:33.410Z,98555.34
2018-03-03T13:15:36.537Z,98555.08
2018-03-03T13:16:39.074Z,98554.20
2018-03-03T13:17:41.600Z,98545.89
2018-03-03T13:18:44.124Z,98553.10
2018-03-03T13:19:46.672Z,98558.13
2018-03-03T13:20:49.460Z,98554.88
2018-03-03T13:21:52.022Z,98554.45
2018-03-03T13:22:54.605Z,98552.50
2018-03-03T13:23:57.146Z,98553.89
2018-03-03T13:24:59.683Z,98550.45
2018-03-03T13:26:02.265Z,98543.56
2018-03-03T13:27:04.939Z,98550.50
2018-03-03T13:28:07.589Z,98554.06
2018-03-03T13:29:10.292Z,98546.41
2018-03-03T13:30:12.916Z,98549.34
2018-03-03T13:31:15.460Z,98553.36
2018-03-03T13:32:18.034Z,98550.98
2018-03-03T13:33:20.569Z,98547.94
2018-03-03T13:34:23.223Z,98554.49
2018-03-03T13:35:26.325Z,98541.45
2018-03-03T13:36:29.094Z,98546.22
2018-03-03T13:37:32.458Z,98549.95
2018-03-03T13:38:36.421Z,98548.42
2018-03-03T13:39:40.787Z,98543.83
2018-03-03T13:40:44.866Z,98552.64
2018-03-03T13:41:47.412Z,98544.66
2018-03-03T13:42:51.443Z,98543.78
2018-03-03T13:43:55.210Z,98542.77
2018-03-03T13:44:57.839Z,98540.57
2018-03-03T13:46:00.393Z,98538.88
2018-03-03T13:47:02.943Z,98545.72
2018-03-03T13:48:05.495Z,98543.75
2018-03-03T13:49:08.037Z,98543.94
2018-03-03T13:50:10.672Z,98539.89
2018-03-03T13:51:13.229Z,98549.17
2018-03-03T13:52:15.778Z,98539.80
2018-03-03T13:53:18.655Z,98538.78
2018-03-03T13:54:21.176Z,98541.46
2018-03-03T13:55:23.982Z,98537.59
2018-03-03T13:56:26.524Z,98537.76
2018-03-03T13:57:29.058Z,98535.84
2018-03-03T13:58:31.611Z,98536.30
2018-03-03T13:59:34.140Z,98538.01
2018-03-03T14:00:36.675Z,98539.14
2018-03-03T14:01:39.216Z,98538.70
2018-03-03T14:02:41.734Z,98543.30
2018-03-03T14:03:44.274Z,98544.27
2018-03-03T14:04:46.795Z,98542.33
2018-03-03T14:05:49.780Z,98541.05
2018-03-03T14:06:52.660Z,98551.58
2018-03-03T14:07:58.146Z,98545.34
2018-03-03T14:09:00.798Z,98552.55
2018-03-03T14:10:03.336Z,98550.86
2018-03-03T14:11:05.892Z,98550.67
2018-03-03T14:12:08.492Z,98551.97
2018-03-03T14:13:11.188Z,98552.73
2018-03-03T14:14:13.833Z,98550.02
2018-03-03T14:15:16.381Z,98557.36
2018-03-03T14:16:24.946Z,98554.84
2018-03-03T14:17:33.199Z,98551.23
2018-03-03T14:18:35.870Z,98557.10
2018-03-03T14:19:43.639Z,98550.19
2018-03-03T14:20:46.149Z,98543.36
2018-03-03T14:21:48.696Z,98550.48
2018-03-03T14:22:51.221Z,98548.67
2018-03-03T14:23:53.742Z,98552.25
2018-03-03T14:24:56.312Z,98555.53
2018-03-03T14:25:59.969Z,98550.73
2018-03-03T14:27:03.537Z,98551.78
2018-03-03T14:28:07.635Z,98548.56
2018-03-03T14:29:12.166Z,98552.13
2018-03-03T14:30:16.455Z,98550.64
2018-03-03T14:31:19.818Z,98551.13
2018-03-03T14:32:22.632Z,98551.52
2018-03-03T14:33:25.932Z,98551.03
2018-03-03T14:34:28.471Z,98549.47
2018-03-03T14:35:31.019Z,98548.47
2018-03-03T14:36:33.546Z,98550.89
2018-03-03T14:37:36.087Z,98553.05
2018-03-03T14:38:38.654Z,98557.50
2018-03-03T14:39:41.188Z,98559.95